Time;durP1;ratioP1;P1;durP2;ratioP2;P2;SDS_P1;SDS_P2;PMS_P1;PMS_P2;Temp;Humidity;BMP_temperature;BMP_pressure;BME280_temperature;BME280_humidity;BME280_pressure;Samples;Min_cycle;Max_cycle;Signal;HPM_P1;HPM_P2
2023/01/14 00:01:44;;;;;;;6.20;1.27;;;15.60;71.00;;;;;;10410760;28;20078;-58
2023/01/14 00:06:45;;;;;;;6.50;1.73;;;15.60;70.90;;;;;;10430507;28;20099;-59
2023/01/14 00:11:45;;;;;;;2.95;1.50;;;15.60;70.90;;;;;;10407386;28;20064;-58
2023/01/14 00:16:47;;;;;;;4.05;1.20;;;15.70;77.50;;;;;;10413765;28;20127;-56
2023/01/14 00:21:49;;;;;;;3.10;1.25;;;15.80;76.10;;;;;;10425727;28;20030;-59
2023/01/14 00:26:52;;;;;;;4.20;1.25;;;15.80;75.20;;;;;;10417001;28;20338;-58
2023/01/14 00:31:55;;;;;;;4.55;1.70;;;15.80;74.80;;;;;;10405206;28;20115;-56
2023/01/14 00:36:57;;;;;;;3.00;1.10;;;15.80;74.60;;;;;;10405052;28;20022;-58
2023/01/14 00:41:58;;;;;;;2.60;1.05;;;15.80;74.40;;;;;;10445517;28;20021;-59
2023/01/14 00:46:58;;;;;;;3.67;1.30;;;15.70;74.30;;;;;;10420488;28;20033;-58
2023/01/14 00:52:00;;;;;;;3.20;0.77;;;15.80;74.00;;;;;;10430143;28;20163;-58
2023/01/14 00:57:01;;;;;;;4.38;0.93;;;15.70;73.60;;;;;;10405592;28;20052;-57
2023/01/14 01:02:02;;;;;;;4.05;1.40;;;15.70;73.60;;;;;;10423914;28;20108;-58
2023/01/14 01:07:05;;;;;;;4.80;1.42;;;15.70;73.50;;;;;;10410949;28;20481;-59
2023/01/14 01:12:05;;;;;;;4.03;1.30;;;15.70;73.30;;;;;;10417315;28;20591;-58
2023/01/14 01:17:06;;;;;;;1.75;0.85;;;15.60;72.70;;;;;;10404227;28;20112;-59
2023/01/14 01:22:07;;;;;;;5.93;1.40;;;15.60;72.50;;;;;;10405145;28;20132;-58
2023/01/14 01:27:07;;;;;;;3.08;1.27;;;15.60;72.60;;;;;;10405055;28;20128;-58
2023/01/14 01:32:08;;;;;;;2.92;1.40;;;15.50;72.40;;;;;;10429934;28;20100;-58
2023/01/14 01:37:09;;;;;;;5.15;1.70;;;15.60;72.40;;;;;;10406607;28;20777;-58
2023/01/14 01:42:14;;;;;;;3.65;1.10;;;15.50;72.30;;;;;;10453726;28;20052;-57
2023/01/14 01:47:20;;;;;;;2.67;0.98;;;15.50;72.30;;;;;;10439314;28;20033;-59
2023/01/14 01:52:27;;;;;;;2.70;1.00;;;15.50;72.60;;;;;;10439171;28;20032;-58
2023/01/14 01:57:28;;;;;;;3.15;1.45;;;15.60;72.10;;;;;;10452328;28;20144;-59
2023/01/14 02:02:29;;;;;;;4.18;1.23;;;15.60;72.00;;;;;;10452356;28;20100;-58
2023/01/14 02:07:30;;;;;;;5.55;1.75;;;15.50;72.00;;;;;;10414549;28;20416;-57
2023/01/14 02:13:04;;;;;;;2.55;1.10;;;15.60;72.80;;;;;;10422825;28;20017;-59
2023/01/14 02:18:36;;;;;;;4.28;1.05;;;15.70;72.10;;;;;;10387691;28;20052;-58
2023/01/14 02:24:34;;;;;;;5.35;1.38;;;15.70;71.90;;;;;;10411404;28;20025;-59
2023/01/14 02:30:06;;;;;;;4.47;1.40;;;15.70;72.10;;;;;;10411333;28;20033;-59
2023/01/14 02:35:42;;;;;;;4.15;1.08;;;15.60;71.60;;;;;;10409738;28;20060;-59
2023/01/14 02:41:08;;;;;;;3.80;1.50;;;15.60;71.50;;;;;;10441495;28;20029;-55
2023/01/14 02:46:25;;;;;;;3.42;1.17;;;15.50;71.60;;;;;;10428285;28;20029;-58
2023/01/14 02:51:26;;;;;;;3.28;1.20;;;15.50;71.50;;;;;;10435349;28;20094;-59
2023/01/14 02:56:27;;;;;;;7.63;1.38;;;15.60;72.30;;;;;;10423931;28;20120;-58
2023/01/14 03:01:59;;;;;;;4.55;2.05;;;15.60;71.60;;;;;;10408977;28;20014;-58
2023/01/14 03:07:23;;;;;;;3.30;1.40;;;15.60;71.20;;;;;;10409740;28;20033;-58
2023/01/14 03:12:40;;;;;;;4.75;1.30;;;15.60;71.60;;;;;;10421053;28;20794;-57
2023/01/14 03:18:23;;;;;;;4.07;1.33;;;15.70;71.40;;;;;;10408288;28;20072;-58
2023/01/14 03:23:25;;;;;;;3.70;1.70;;;15.70;71.20;;;;;;10421535;28;20029;-58
2023/01/14 03:28:34;;;;;;;3.10;1.23;;;15.60;70.70;;;;;;10418913;28;20702;-60
2023/01/14 03:33:42;;;;;;;6.77;1.73;;;15.60;71.10;;;;;;10421117;28;20064;-57
2023/01/14 03:38:49;;;;;;;2.97;0.73;;;15.70;71.30;;;;;;10421747;28;20289;-59
2023/01/14 03:43:54;;;;;;;5.55;1.88;;;15.70;71.10;;;;;;10445814;28;20716;-58
2023/01/14 03:48:54;;;;;;;4.72;1.85;;;15.70;70.90;;;;;;10407065;28;20693;-57
2023/01/14 03:54:21;;;;;;;5.72;1.45;;;15.70;70.80;;;;;;10406813;28;20022;-58
2023/01/14 03:59:58;;;;;;;5.05;1.85;;;15.60;70.40;;;;;;10419629;28;20024;-58
2023/01/14 04:05:00;;;;;;;4.65;2.05;;;15.50;70.60;;;;;;10405848;28;20018;-58
2023/01/14 04:10:01;;;;;;;4.68;1.83;;;15.60;70.70;;;;;;10405928;28;20042;-58
2023/01/14 04:20:21;;;;;;;7.50;2.17;;;15.60;70.40;;;;;;10406270;28;20033;-58
2023/01/14 04:25:22;;;;;;;4.45;2.10;;;15.50;70.00;;;;;;10416052;28;20101;-59
2023/01/14 04:30:22;;;;;;;3.15;1.38;;;15.60;69.90;;;;;;10429898;28;20093;-57
2023/01/14 04:35:23;;;;;;;6.35;1.48;;;15.50;71.00;;;;;;10447667;28;20025;-58
2023/01/14 04:40:24;;;;;;;5.70;1.23;;;15.60;70.70;;;;;;10447349;28;20084;-59
2023/01/14 04:45:24;;;;;;;6.78;2.25;;;15.70;70.40;;;;;;10431861;28;20825;-59
2023/01/14 04:50:31;;;;;;;3.15;1.60;;;15.80;69.90;;;;;;10404813;28;20123;-55
2023/01/14 04:55:33;;;;;;;6.60;2.30;;;15.80;69.50;;;;;;10410829;28;20025;-56
2023/01/14 05:00:35;;;;;;;6.45;1.67;;;15.70;69.20;;;;;;10411543;28;20053;-56
2023/01/14 05:05:36;;;;;;;7.60;1.52;;;15.70;70.70;;;;;;10413295;28;20535;-56
2023/01/14 05:10:37;;;;;;;4.90;1.60;;;15.80;69.80;;;;;;10419883;28;20056;-55
2023/01/14 05:15:42;;;;;;;6.50;1.65;;;15.80;69.70;;;;;;10431894;28;20165;-55
2023/01/14 05:20:43;;;;;;;5.65;2.28;;;15.80;69.90;;;;;;10410932;28;20021;-55
2023/01/14 05:25:45;;;;;;;4.32;1.60;;;15.70;69.40;;;;;;10418352;28;20017;-56
2023/01/14 05:30:46;;;;;;;5.13;1.60;;;15.70;70.10;;;;;;10416200;28;20393;-55
2023/01/14 05:35:47;;;;;;;5.90;2.10;;;15.80;69.70;;;;;;10408584;28;20433;-55
2023/01/14 05:40:47;;;;;;;8.65;1.52;;;15.70;69.60;;;;;;10429740;28;20136;-54
2023/01/14 05:45:48;;;;;;;7.75;1.77;;;15.70;69.10;;;;;;10420196;28;20108;-55
2023/01/14 05:50:55;;;;;;;9.13;2.00;;;15.70;70.10;;;;;;10422231;28;20039;-56
2023/01/14 05:55:57;;;;;;;9.43;2.55;;;15.80;70.40;;;;;;10429390;28;20039;-56
2023/01/14 06:06:28;;;;;;;9.10;1.98;;;16.00;70.50;;;;;;10412739;28;20484;-56
2023/01/14 06:11:32;;;;;;;12.73;2.33;;;16.10;70.80;;;;;;10399416;28;20123;-56
2023/01/14 06:16:43;;;;;;;14.45;3.78;;;16.10;70.80;;;;;;10399339;28;20017;-55
2023/01/14 06:21:44;;;;;;;7.88;1.98;;;16.10;71.30;;;;;;10399860;28;20013;-54
2023/01/14 06:26:44;;;;;;;7.22;2.40;;;16.10;71.10;;;;;;10417177;28;20069;-55
2023/01/14 06:31:45;;;;;;;12.45;2.35;;;16.00;71.50;;;;;;10410779;28;20104;-55
2023/01/14 06:36:45;;;;;;;9.18;2.10;;;16.00;71.50;;;;;;10407287;28;20583;-54
2023/01/14 06:41:46;;;;;;;11.68;2.25;;;16.00;71.10;;;;;;10415164;28;20079;-56
2023/01/14 06:46:47;;;;;;;6.63;2.28;;;16.00;71.50;;;;;;10414970;28;20099;-54
2023/01/14 06:51:47;;;;;;;9.30;2.17;;;15.90;71.50;;;;;;10406760;28;20503;-56
2023/01/14 06:56:48;;;;;;;9.93;2.30;;;15.90;71.20;;;;;;10406850;28;20052;-54
2023/01/14 07:01:49;;;;;;;9.73;2.95;;;15.90;71.40;;;;;;10425272;28;20055;-54
2023/01/14 07:06:51;;;;;;;6.40;2.58;;;15.90;70.90;;;;;;10447265;28;20145;-56
2023/01/14 07:11:52;;;;;;;18.63;3.17;;;15.90;71.50;;;;;;10445727;28;20049;-56
2023/01/14 07:16:53;;;;;;;10.65;2.25;;;15.90;71.40;;;;;;10445586;28;20047;-55
2023/01/14 07:21:54;;;;;;;11.55;2.72;;;15.90;71.30;;;;;;10434226;28;20112;-55
2023/01/14 07:26:54;;;;;;;19.75;3.42;;;15.90;71.00;;;;;;10423376;28;20029;-55
2023/01/14 07:31:56;;;;;;;23.15;4.22;;;15.80;70.80;;;;;;10403973;28;20068;-56
2023/01/14 07:36:56;;;;;;;28.92;4.95;;;15.70;70.50;;;;;;10404640;28;20033;-55
2023/01/14 07:41:57;;;;;;;21.95;3.78;;;15.60;70.30;;;;;;10422841;28;20023;-55
2023/01/14 07:46:58;;;;;;;17.77;4.47;;;15.60;70.70;;;;;;10425159;28;20065;-53
2023/01/14 07:51:58;;;;;;;24.33;5.50;;;15.50;70.80;;;;;;10430805;28;20018;-60
2023/01/14 07:56:59;;;;;;;22.05;4.63;;;15.50;70.80;;;;;;10424823;28;20130;-53
2023/01/14 08:02:00;;;;;;;37.60;7.57;;;15.50;70.70;;;;;;10425138;28;20097;-57
2023/01/14 08:07:01;;;;;;;21.63;3.92;;;15.50;70.40;;;;;;10424942;28;20068;-55
2023/01/14 08:12:02;;;;;;;22.05;3.92;;;15.70;71.00;;;;;;10425579;28;20049;-55
2023/01/14 08:17:04;;;;;;;23.67;3.63;;;15.60;71.00;;;;;;10452390;28;20025;-53
2023/01/14 08:22:05;;;;;;;20.92;3.95;;;15.70;70.40;;;;;;10464798;28;20400;-55
2023/01/14 08:27:06;;;;;;;27.95;4.55;;;15.90;70.30;;;;;;10442708;28;20116;-56
2023/01/14 08:32:07;;;;;;;30.80;5.10;;;15.70;70.50;;;;;;10449326;28;20018;-55
2023/01/14 08:37:07;;;;;;;19.77;6.75;;;15.60;70.90;;;;;;10421978;28;20104;-55
2023/01/14 08:42:08;;;;;;;21.13;4.00;;;15.70;70.70;;;;;;10429113;28;20047;-55
2023/01/14 08:47:09;;;;;;;28.60;5.82;;;15.60;70.40;;;;;;10425359;28;20032;-55
2023/01/14 08:52:10;;;;;;;19.92;3.90;;;15.50;70.60;;;;;;10446322;28;20009;-54
2023/01/14 08:57:10;;;;;;;17.42;3.45;;;15.60;71.30;;;;;;10428040;28;20112;-55
2023/01/14 09:02:15;;;;;;;21.38;4.97;;;15.60;71.10;;;;;;10429893;28;20013;-58
2023/01/14 09:17:53;;;;;;;14.98;3.25;;;15.60;69.90;;;;;;10430717;28;20041;-54
2023/01/14 09:22:54;;;;;;;22.30;5.03;;;15.60;70.60;;;;;;10426416;28;20072;-56
2023/01/14 09:27:55;;;;;;;16.23;4.43;;;15.60;69.80;;;;;;10424695;28;20021;-54
2023/01/14 09:32:56;;;;;;;16.15;3.90;;;15.50;69.70;;;;;;10422552;28;20116;-55
2023/01/14 09:37:57;;;;;;;12.40;3.13;;;15.50;69.70;;;;;;10425096;28;20435;-55
2023/01/14 09:42:57;;;;;;;14.07;3.33;;;15.50;69.60;;;;;;10429237;28;20017;-56
2023/01/14 09:48:14;;;;;;;11.70;2.92;;;15.50;69.50;;;;;;10425085;28;20024;-56
2023/01/14 09:53:59;;;;;;;9.32;3.20;;;15.40;69.30;;;;;;10426422;28;20531;-55
2023/01/14 09:59:35;;;;;;;11.63;3.28;;;15.50;69.20;;;;;;10425002;28;20043;-54
2023/01/14 10:05:13;;;;;;;5.50;1.83;;;15.50;69.00;;;;;;10407547;28;20790;-55
2023/01/14 10:10:38;;;;;;;7.28;2.45;;;15.50;69.20;;;;;;10429223;28;20056;-56
2023/01/14 10:16:01;;;;;;;10.98;2.42;;;15.50;69.00;;;;;;10432456;28;20110;-54
2023/01/14 10:21:16;;;;;;;7.57;2.03;;;15.50;68.70;;;;;;10429858;28;20076;-56
2023/01/14 10:26:20;;;;;;;7.50;1.77;;;15.50;68.60;;;;;;10434268;28;20044;-55
2023/01/14 10:31:33;;;;;;;6.32;2.08;;;15.60;68.40;;;;;;10433570;28;20025;-55
2023/01/14 10:36:35;;;;;;;8.10;2.00;;;15.60;68.20;;;;;;10429005;28;20068;-56
2023/01/14 10:41:50;;;;;;;5.25;1.70;;;15.60;68.30;;;;;;10433245;28;20013;-56
2023/01/14 10:46:55;;;;;;;5.32;1.60;;;15.60;68.20;;;;;;10428405;28;20034;-56
2023/01/14 10:51:57;;;;;;;9.18;1.70;;;15.60;68.30;;;;;;10429050;28;20035;-56
2023/01/14 10:57:11;;;;;;;6.80;1.50;;;15.50;68.40;;;;;;10432734;28;20041;-56
2023/01/14 11:02:38;;;;;;;3.45;1.20;;;15.60;68.40;;;;;;10447323;28;20075;-56
2023/01/14 11:07:41;;;;;;;12.18;3.63;;;15.60;68.30;;;;;;10438398;28;20060;-55
2023/01/14 11:12:42;;;;;;;10.02;1.98;;;15.50;68.40;;;;;;10434606;28;20662;-56
2023/01/14 11:17:43;;;;;;;6.25;1.90;;;15.60;68.20;;;;;;10430567;28;20029;-56
2023/01/14 11:22:44;;;;;;;9.68;1.77;;;15.60;68.00;;;;;;10430598;28;20125;-56
2023/01/14 11:27:49;;;;;;;9.45;2.55;;;15.60;68.00;;;;;;10429744;28;20106;-56
2023/01/14 11:32:52;;;;;;;7.10;1.80;;;15.60;68.10;;;;;;10430535;28;20100;-56
2023/01/14 11:37:53;;;;;;;7.20;1.90;;;15.60;68.10;;;;;;10433018;28;20560;-54
2023/01/14 11:43:09;;;;;;;14.77;2.80;;;15.60;68.50;;;;;;10429015;28;20027;-57
2023/01/14 11:48:27;;;;;;;13.38;2.78;;;15.70;69.20;;;;;;10407227;28;20032;-55
2023/01/14 11:53:47;;;;;;;17.17;2.10;;;16.10;69.00;;;;;;10407150;28;20096;-56
2023/01/14 11:58:47;;;;;;;;;;;16.30;68.60;;;;;;10407367;28;20022;-56
2023/01/14 12:04:10;;;;;;;15.90;3.03;;;16.30;69.10;;;;;;10406858;28;19909;-55
2023/01/14 12:09:22;;;;;;;13.68;1.98;;;16.30;69.20;;;;;;10419167;28;20033;-56
2023/01/14 12:19:58;;;;;;;12.20;3.50;;;16.30;69.70;;;;;;10418925;28;20119;-56
2023/01/14 12:25:30;;;;;;;16.35;2.47;;;16.10;69.20;;;;;;10426017;28;20083;-56
2023/01/14 12:30:50;;;;;;;14.30;2.90;;;15.90;69.70;;;;;;10425179;28;20040;-56
2023/01/14 12:36:05;;;;;;;16.58;3.35;;;15.80;70.20;;;;;;10428694;28;20096;-57
2023/01/14 12:46:29;;;;;;;12.85;2.20;;;16.00;70.10;;;;;;10427528;28;20029;-56
2023/01/14 12:51:32;;;;;;;11.38;2.97;;;16.00;70.10;;;;;;10429202;28;20108;-56
2023/01/14 12:56:48;;;;;;;14.50;2.97;;;16.00;70.00;;;;;;10423772;28;20097;-56
2023/01/14 13:01:56;;;;;;;11.45;2.55;;;16.00;69.60;;;;;;10424108;28;20021;-56
2023/01/14 13:07:04;;;;;;;6.95;1.90;;;16.00;69.30;;;;;;10433131;28;20171;-57
2023/01/14 13:12:15;;;;;;;9.90;2.08;;;16.10;69.00;;;;;;10421824;28;20032;-56
2023/01/14 13:17:32;;;;;;;8.65;2.10;;;16.10;68.90;;;;;;10435757;28;20035;-56
2023/01/14 13:22:50;;;;;;;10.60;1.58;;;16.20;68.80;;;;;;10440913;28;20049;-54
2023/01/14 13:27:51;;;;;;;4.72;1.27;;;16.20;68.90;;;;;;10421897;28;20144;-48
2023/01/14 13:33:01;;;;;;;3.20;0.90;;;16.20;68.80;;;;;;10417964;28;20242;-46
2023/01/14 13:38:22;;;;;;;12.68;1.90;;;16.20;68.60;;;;;;10438493;28;20021;-48
2023/01/14 13:43:26;;;;;;;3.40;1.40;;;16.20;68.70;;;;;;10407447;28;20055;-56
2023/01/14 13:48:48;;;;;;;4.82;0.90;;;16.30;68.50;;;;;;10424820;28;20053;-57
2023/01/14 13:54:04;;;;;;;2.42;1.00;;;16.20;68.60;;;;;;10434936;28;20529;-56
2023/01/14 13:59:06;;;;;;;7.18;1.15;;;16.20;68.70;;;;;;10426465;28;20044;-56
2023/01/14 14:04:10;;;;;;;4.18;1.38;;;16.20;68.70;;;;;;10433650;28;20476;-56
2023/01/14 14:09:22;;;;;;;2.78;1.15;;;16.30;68.50;;;;;;10430235;28;20045;-55
2023/01/14 14:14:34;;;;;;;1.83;0.70;;;16.20;68.70;;;;;;10455265;28;20024;-56
2023/01/14 14:19:49;;;;;;;4.82;1.88;;;16.20;68.70;;;;;;10429094;28;20026;-56
2023/01/14 14:24:56;;;;;;;1.70;0.80;;;16.20;68.60;;;;;;10441204;28;20020;-55
2023/01/14 14:30:09;;;;;;;7.80;2.05;;;16.20;68.80;;;;;;10435649;28;20040;-56
2023/01/14 14:35:20;;;;;;;3.30;1.40;;;16.10;68.90;;;;;;10434909;28;20024;-55
2023/01/14 14:40:38;;;;;;;4.05;0.90;;;16.10;68.90;;;;;;10426995;28;20554;-55
2023/01/14 14:45:38;;;;;;;5.18;0.98;;;16.20;68.80;;;;;;10416710;28;20024;-56
2023/01/14 14:50:39;;;;;;;5.53;1.20;;;16.30;68.70;;;;;;10431538;28;20029;-56
2023/01/14 14:55:51;;;;;;;4.78;1.48;;;16.40;68.20;;;;;;10426872;28;20044;-55
2023/01/14 15:01:05;;;;;;;10.50;2.90;;;16.20;69.10;;;;;;10415341;28;21115;-55
2023/01/14 15:06:12;;;;;;;14.27;1.92;;;16.40;68.70;;;;;;10435971;28;20013;-56
2023/01/14 15:11:16;;;;;;;11.25;1.95;;;16.40;68.30;;;;;;10427495;28;20072;-55
2023/01/14 15:16:21;;;;;;;9.60;2.10;;;16.30;68.40;;;;;;10426121;28;20515;-56
2023/01/14 15:21:32;;;;;;;10.15;2.00;;;16.30;68.30;;;;;;10427028;28;20025;-55
2023/01/14 15:26:35;;;;;;;10.82;1.75;;;16.50;68.20;;;;;;10426174;28;20534;-54
2023/01/14 15:31:37;;;;;;;8.15;1.90;;;16.70;68.60;;;;;;10429076;28;20432;-55
2023/01/14 15:36:38;;;;;;;7.70;1.88;;;16.80;68.10;;;;;;10428539;28;20671;-55
2023/01/14 15:41:52;;;;;;;6.32;1.58;;;16.80;67.70;;;;;;10427518;28;20055;-54
2023/01/14 15:46:54;;;;;;;10.25;2.17;;;16.70;67.90;;;;;;10399611;28;21193;-56
2023/01/14 15:51:55;;;;;;;11.90;1.80;;;16.70;68.80;;;;;;10433352;28;20014;-54
2023/01/14 15:56:55;;;;;;;13.48;4.10;;;16.60;69.70;;;;;;10411247;28;20022;-52
2023/01/14 16:01:56;;;;;;;29.95;4.47;;;16.50;69.80;;;;;;10405627;28;20017;-55
2023/01/14 16:07:13;;;;;;;20.70;4.32;;;16.30;70.90;;;;;;10420972;28;20063;-54
2023/01/14 16:12:15;;;;;;;27.27;5.70;;;16.30;71.00;;;;;;10404336;28;20507;-55
2023/01/14 16:17:18;;;;;;;23.77;5.00;;;16.20;71.60;;;;;;10404830;28;20025;-56
2023/01/14 16:22:19;;;;;;;29.63;4.45;;;16.20;71.80;;;;;;10404061;28;20029;-55
2023/01/14 16:27:23;;;;;;;77.53;33.97;;;16.20;71.60;;;;;;10402169;28;20120;-55
2023/01/14 16:32:23;;;;;;;38.90;12.35;;;16.30;72.10;;;;;;10408011;28;20110;-54
2023/01/14 16:37:24;;;;;;;31.83;9.93;;;16.40;73.20;;;;;;10438639;28;20116;-55
2023/01/14 16:42:25;;;;;;;15.48;6.13;;;16.60;71.40;;;;;;10430234;28;20055;-56
2023/01/14 16:47:25;;;;;;;19.52;6.05;;;16.70;71.30;;;;;;10439349;28;20107;-56
2023/01/14 16:52:26;;;;;;;17.75;5.60;;;17.00;74.70;;;;;;10414417;28;20076;-56
2023/01/14 16:57:26;;;;;;;19.25;5.20;;;17.40;72.00;;;;;;10400659;28;20056;-57
2023/01/14 17:02:27;;;;;;;16.25;5.45;;;17.30;72.60;;;;;;10415783;28;20023;-56
2023/01/14 17:07:28;;;;;;;15.35;4.75;;;17.20;72.70;;;;;;10429727;28;20098;-55
2023/01/14 17:12:37;;;;;;;14.85;4.82;;;17.00;72.60;;;;;;10424509;28;20014;-55
2023/01/14 17:17:39;;;;;;;37.72;6.57;;;16.80;73.00;;;;;;10438817;28;20025;-55
2023/01/14 17:22:40;;;;;;;16.40;4.00;;;16.60;74.00;;;;;;10434026;28;20063;-55
2023/01/14 17:27:41;;;;;;;16.08;3.30;;;16.50;74.20;;;;;;10441544;28;20163;-54
2023/01/14 17:32:43;;;;;;;15.88;4.13;;;16.50;74.40;;;;;;10448994;28;20013;-56
2023/01/14 17:37:45;;;;;;;16.30;4.57;;;16.60;74.00;;;;;;10435636;28;20021;-56
2023/01/14 17:42:57;;;;;;;19.95;5.03;;;16.70;73.40;;;;;;10440684;28;20009;-56
2023/01/14 17:47:58;;;;;;;10.00;3.20;;;16.50;74.20;;;;;;10440260;28;20032;-57
2023/01/14 17:52:59;;;;;;;14.27;4.15;;;16.40;74.60;;;;;;10436821;28;20084;-56
2023/01/14 17:57:59;;;;;;;14.40;3.58;;;16.40;74.70;;;;;;10440105;28;20155;-56
2023/01/14 18:03:00;;;;;;;14.20;3.38;;;16.40;74.80;;;;;;10439192;28;20096;-55
2023/01/14 18:08:01;;;;;;;19.33;3.40;;;16.40;74.80;;;;;;10439794;28;20145;-56
2023/01/14 18:13:01;;;;;;;34.55;6.10;;;16.50;74.20;;;;;;10428019;28;20104;-55
2023/01/14 18:18:02;;;;;;;39.92;6.07;;;16.40;74.40;;;;;;10431604;28;20104;-55
2023/01/14 18:23:03;;;;;;;48.00;7.32;;;16.30;74.80;;;;;;10445881;28;20027;-55
2023/01/14 18:28:05;;;;;;;38.47;7.07;;;16.40;74.80;;;;;;10439111;28;20117;-56
2023/01/14 18:33:06;;;;;;;32.63;6.57;;;16.40;74.80;;;;;;10435976;28;20175;-56
2023/01/14 18:38:07;;;;;;;38.97;6.03;;;16.30;74.90;;;;;;10438980;28;20052;-55
2023/01/14 18:43:08;;;;;;;32.33;5.38;;;16.30;74.90;;;;;;10426448;28;20014;-54
2023/01/14 18:48:10;;;;;;;22.80;4.45;;;16.30;75.00;;;;;;10430243;28;20124;-54
2023/01/14 18:53:10;;;;;;;18.60;4.22;;;16.20;74.60;;;;;;10437258;28;20197;-56
2023/01/14 18:58:11;;;;;;;17.27;3.90;;;16.20;74.70;;;;;;10413652;28;20084;-55
2023/01/14 19:03:12;;;;;;;19.45;3.75;;;16.20;74.70;;;;;;10439758;28;20100;-56
2023/01/14 19:08:12;;;;;;;13.32;3.08;;;16.40;74.70;;;;;;10433471;28;20033;-55
2023/01/14 19:13:13;;;;;;;12.13;3.83;;;16.50;74.30;;;;;;10432170;28;20025;-54
2023/01/14 19:18:16;;;;;;;9.07;2.75;;;16.50;74.20;;;;;;10437316;28;20045;-56
2023/01/14 19:23:16;;;;;;;12.73;2.67;;;16.40;74.30;;;;;;10414785;28;20142;-56
2023/01/14 19:28:17;;;;;;;13.23;2.97;;;16.40;74.30;;;;;;10409407;28;20026;-61
2023/01/14 19:33:18;;;;;;;10.32;2.50;;;16.40;74.30;;;;;;10414883;28;20026;-56
2023/01/14 19:38:18;;;;;;;11.57;2.55;;;16.40;74.60;;;;;;10438094;28;20104;-56
2023/01/14 19:43:19;;;;;;;11.10;2.78;;;16.30;74.20;;;;;;10443342;28;20107;-55
2023/01/14 19:48:20;;;;;;;7.25;2.45;;;16.10;73.70;;;;;;10427904;28;20083;-55
2023/01/14 19:53:21;;;;;;;8.15;2.13;;;16.00;74.10;;;;;;10430361;28;20096;-56
2023/01/14 19:58:23;;;;;;;7.93;1.95;;;16.00;74.20;;;;;;10426697;28;20104;-56
2023/01/14 20:03:24;;;;;;;7.57;3.47;;;15.90;74.20;;;;;;10425998;28;20598;-56
2023/01/14 20:08:25;;;;;;;14.80;3.72;;;15.90;74.10;;;;;;10404174;28;20175;-56
2023/01/14 20:13:26;;;;;;;9.60;2.80;;;15.90;74.10;;;;;;10426298;28;20428;-55
2023/01/14 20:18:30;;;;;;;9.93;3.35;;;15.90;74.10;;;;;;10411366;28;20108;-56
2023/01/14 20:23:33;;;;;;;11.60;4.70;;;15.90;74.00;;;;;;10405601;28;20049;-54
2023/01/14 20:28:34;;;;;;;6.50;2.47;;;15.80;74.30;;;;;;10405387;28;20037;-56
2023/01/14 20:33:35;;;;;;;9.30;3.13;;;15.90;73.80;;;;;;10406187;28;20092;-55
2023/01/14 20:38:37;;;;;;;8.25;3.75;;;15.90;73.60;;;;;;10430814;28;20111;-56
2023/01/14 20:43:38;;;;;;;8.75;3.67;;;15.90;73.60;;;;;;10417954;28;20025;-56
2023/01/14 20:48:39;;;;;;;9.70;3.53;;;15.80;73.50;;;;;;10389413;28;20037;-56
2023/01/14 20:53:41;;;;;;;5.97;3.10;;;15.80;73.50;;;;;;10412140;28;20084;-55
2023/01/14 21:03:44;;;;;;;6.57;3.38;;;15.70;73.30;;;;;;10404476;28;20037;-55
2023/01/14 21:08:45;;;;;;;5.25;2.65;;;15.70;73.30;;;;;;10404143;28;20048;-56
2023/01/14 21:24:41;;;;;;;5.78;2.67;;;15.70;73.20;;;;;;10404738;28;20034;-56
2023/01/14 21:29:42;;;;;;;4.85;2.80;;;15.70;73.20;;;;;;10405227;28;20112;-56
2023/01/14 21:34:42;;;;;;;5.53;2.83;;;15.70;73.20;;;;;;10404300;28;20021;-55
2023/01/14 21:39:43;;;;;;;4.50;2.78;;;15.70;73.10;;;;;;10404639;28;20061;-54
2023/01/14 21:44:44;;;;;;;4.82;2.80;;;15.70;73.10;;;;;;10418042;28;20072;-55
2023/01/14 21:49:51;;;;;;;4.50;2.60;;;15.60;73.00;;;;;;10409275;28;20109;-55
2023/01/14 21:54:52;;;;;;;4.50;2.78;;;15.60;72.90;;;;;;10432025;28;20041;-55
2023/01/14 21:59:52;;;;;;;5.45;2.08;;;15.60;72.90;;;;;;10412824;28;20026;-55
2023/01/14 22:04:53;;;;;;;3.70;2.13;;;15.60;72.90;;;;;;10412681;28;20028;-55
2023/01/14 22:09:53;;;;;;;5.25;2.30;;;15.60;72.90;;;;;;10410641;28;20077;-53
2023/01/14 22:14:54;;;;;;;3.88;1.80;;;15.60;72.80;;;;;;10411281;28;20041;-57
2023/01/14 22:19:55;;;;;;;6.30;2.38;;;15.60;72.80;;;;;;10410384;28;20029;-57
2023/01/14 22:24:56;;;;;;;5.30;2.17;;;15.60;72.70;;;;;;10434507;28;20078;-55
2023/01/14 22:29:57;;;;;;;3.22;1.95;;;15.60;72.70;;;;;;10412938;28;20029;-54
2023/01/14 22:34:58;;;;;;;3.85;2.03;;;15.60;72.70;;;;;;10423141;28;20033;-57
2023/01/14 22:39:59;;;;;;;4.63;1.88;;;15.60;72.60;;;;;;10410954;28;20473;-56
2023/01/14 22:44:59;;;;;;;5.03;2.03;;;15.60;72.70;;;;;;10423106;28;20369;-56
2023/01/14 22:50:00;;;;;;;3.45;1.95;;;15.60;72.70;;;;;;10418030;28;20146;-57
2023/01/14 22:55:01;;;;;;;4.45;1.60;;;15.60;72.50;;;;;;10410384;28;20669;-54
2023/01/14 23:00:08;;;;;;;3.28;1.77;;;15.50;72.50;;;;;;10410430;28;20578;-55
2023/01/14 23:05:09;;;;;;;5.38;1.55;;;15.60;72.40;;;;;;10408305;28;20036;-55
2023/01/14 23:10:11;;;;;;;5.97;1.63;;;15.60;72.40;;;;;;10418742;28;20088;-56
2023/01/14 23:15:11;;;;;;;4.60;1.60;;;15.50;72.20;;;;;;10426476;28;20830;-60
2023/01/14 23:25:45;;;;;;;2.75;1.45;;;15.50;72.20;;;;;;10411825;28;20056;-56
2023/01/14 23:30:46;;;;;;;4.95;1.30;;;15.50;72.30;;;;;;10409471;28;20361;-56
2023/01/14 23:35:46;;;;;;;4.60;2.08;;;15.50;72.10;;;;;;10408966;28;20104;-56
2023/01/14 23:40:47;;;;;;;5.70;1.80;;;15.50;72.00;;;;;;10408981;28;20630;-56
2023/01/14 23:45:48;;;;;;;3.67;1.52;;;15.50;72.60;;;;;;10420814;28;20025;-56
2023/01/14 23:50:49;;;;;;;6.95;1.40;;;15.60;72.00;;;;;;10430494;28;20064;-55
2023/01/14 23:55:49;;;;;;;2.55;1.38;;;15.70;71.70;;;;;;10408008;28;20096;-55
